createdAt,value
2023-02-24T00:02:05.423Z,100015.97
2023-02-24T00:04:38.625Z,100008.16
2023-02-24T00:07:07.477Z,100018.66
2023-02-24T00:09:37.671Z,100009.50
2023-02-24T00:12:08.896Z,100003.03
2023-02-24T00:14:40.526Z,100001.88
2023-02-24T00:17:10.117Z,99998.47
2023-02-24T00:19:40.815Z,99992.91
2023-02-24T00:22:10.237Z,99989.03
2023-02-24T00:24:38.533Z,99995.31
2023-02-24T00:27:11.686Z,99984.94
2023-02-24T00:29:42.256Z,99991.41
2023-02-24T00:32:23.096Z,99983.31
2023-02-24T00:34:52.605Z,99978.94
2023-02-24T00:37:26.670Z,99973.16
2023-02-24T00:39:58.715Z,99973.16
2023-02-24T00:42:29.726Z,99962.75
2023-02-24T00:44:57.737Z,99962.09
2023-02-24T00:47:27.306Z,99949.47
2023-02-24T00:49:57.096Z,99947.25
2023-02-24T00:52:28.073Z,99956.13
2023-02-24T00:55:04.254Z,99945.44
2023-02-24T00:57:35.629Z,99950.97
2023-02-24T01:00:10.264Z,99955.00
2023-02-24T01:02:38.485Z,99951.59
2023-02-24T01:05:09.550Z,99950.78
2023-02-24T01:07:37.707Z,99943.16
2023-02-24T01:10:08.794Z,99938.34
2023-02-24T01:12:49.619Z,99946.16
2023-02-24T01:15:20.360Z,99932.88
2023-02-24T01:17:49.128Z,99936.69
2023-02-24T01:20:23.691Z,99934.00
2023-02-24T01:22:54.724Z,99935.09
2023-02-24T01:25:25.336Z,99925.25
2023-02-24T01:27:54.428Z,99926.41
2023-02-24T01:30:23.102Z,99923.53
2023-02-24T01:32:51.671Z,99920.38
2023-02-24T01:35:21.960Z,99918.13
2023-02-24T01:37:50.330Z,99916.53
2023-02-24T01:40:21.893Z,99915.91
2023-02-24T01:42:52.799Z,99916.97
2023-02-24T01:45:28.954Z,99916.34
2023-02-24T01:48:01.938Z,99914.69
2023-02-24T01:50:33.971Z,99905.16
2023-02-24T01:53:06.497Z,99895.78
2023-02-24T01:55:39.507Z,99900.56
2023-02-24T01:58:12.656Z,99871.63
2023-02-24T02:00:47.689Z,99887.78
2023-02-24T02:03:29.646Z,99889.72
2023-02-24T02:06:08.940Z,99895.94
2023-02-24T02:08:42.088Z,99886.00
2023-02-24T02:11:16.625Z,99886.56
2023-02-24T02:13:57.515Z,99888.22
2023-02-24T02:16:44.068Z,99883.03
2023-02-24T02:19:58.167Z,99873.47
2023-02-24T02:22:55.941Z,99874.03
2023-02-24T02:25:38.866Z,99870.00
2023-02-24T02:28:34.874Z,99865.91
2023-02-24T02:31:32.575Z,99870.50
2023-02-24T02:34:21.267Z,99866.47
2023-02-24T02:37:02.213Z,99868.72
2023-02-24T02:39:43.216Z,99862.69
2023-02-24T02:42:27.249Z,99855.88
2023-02-24T02:45:07.703Z,99854.66
2023-02-24T02:47:48.122Z,99858.94
2023-02-24T02:50:29.363Z,99858.94
2023-02-24T02:53:07.126Z,99852.56
2023-02-24T02:55:43.549Z,99852.78
2023-02-24T02:58:18.203Z,99839.44
2023-02-24T03:01:01.675Z,99842.38
2023-02-24T03:03:34.247Z,99839.66
2023-02-24T03:06:12.041Z,99833.88
2023-02-24T03:08:46.682Z,99827.47
2023-02-24T03:11:22.530Z,99822.53
2023-02-24T03:14:07.513Z,99826.53
2023-02-24T03:16:38.011Z,99830.50
2023-02-24T03:19:10.359Z,99825.47
2023-02-24T03:21:42.238Z,99828.25
2023-02-24T03:24:10.768Z,99819.13
2023-02-24T03:26:45.518Z,99826.28
2023-02-24T03:29:19.307Z,99800.16
2023-02-24T03:31:56.741Z,99817.25
2023-02-24T03:34:34.960Z,99822.56
2023-02-24T03:37:05.276Z,99820.56
2023-02-24T03:39:33.859Z,99820.34
2023-02-24T03:42:08.996Z,99814.84
2023-02-24T03:44:37.349Z,99817.13
2023-02-24T03:47:08.036Z,99816.34
2023-02-24T03:49:38.696Z,99821.22
2023-02-24T03:52:21.785Z,99823.06
2023-02-24T03:55:16.799Z,99821.22
2023-02-24T03:58:00.241Z,99815.59
2023-02-24T04:00:38.634Z,99811.69
2023-02-24T04:03:18.759Z,99804.97
2023-02-24T04:05:56.738Z,99803.84
2023-02-24T04:08:31.617Z,99808.16
2023-02-24T04:11:10.621Z,99806.31
2023-02-24T04:13:43.544Z,99799.41
2023-02-24T04:16:18.413Z,99786.16
2023-02-24T04:18:51.852Z,99779.91
2023-02-24T04:21:25.088Z,99780.00
2023-02-24T04:23:58.232Z,99784.94
2023-02-24T04:26:31.512Z,99769.22
2023-02-24T04:28:59.790Z,99757.31
2023-02-24T04:31:32.320Z,99763.25
2023-02-24T04:34:00.511Z,99773.50
2023-02-24T04:36:29.278Z,99748.75
2023-02-24T04:38:59.714Z,99762.06
2023-02-24T04:41:30.445Z,99756.75
2023-02-24T04:44:00.071Z,99756.56
2023-02-24T04:46:29.861Z,99749.44
2023-02-24T04:48:59.797Z,99741.97
2023-02-24T04:51:31.782Z,99743.09
2023-02-24T04:54:04.860Z,99732.31
2023-02-24T04:56:32.816Z,99725.28
2023-02-24T04:59:03.189Z,99727.19
2023-02-24T05:01:36.969Z,99730.09
2023-02-24T05:04:08.589Z,99714.28
2023-02-24T05:06:41.022Z,99707.28
2023-02-24T05:09:14.355Z,99713.41
2023-02-24T05:11:45.749Z,99709.34
2023-02-24T05:14:16.963Z,99712.19
2023-02-24T05:16:46.922Z,99709.09
2023-02-24T05:19:35.409Z,99710.97
2023-02-24T05:22:07.077Z,99710.41
2023-02-24T05:24:36.766Z,99716.56
2023-02-24T05:27:08.533Z,99715.19
2023-02-24T05:29:38.675Z,99711.81
2023-02-24T05:32:08.559Z,99707.16
2023-02-24T05:34:41.472Z,99708.44
2023-02-24T05:37:10.669Z,99702.88
2023-02-24T05:39:41.004Z,99693.53
2023-02-24T05:42:12.167Z,99699.03
2023-02-24T05:44:40.988Z,99689.56
2023-02-24T05:47:10.637Z,99696.63
2023-02-24T05:49:43.866Z,99703.75
2023-02-24T05:52:14.315Z,99699.69
2023-02-24T05:54:48.549Z,99690.50
2023-02-24T05:57:20.678Z,99691.47
2023-02-24T05:59:58.715Z,99679.06
2023-02-24T06:02:31.325Z,99691.25
2023-02-24T06:05:01.034Z,99684.34
2023-02-24T06:07:35.860Z,99675.13
2023-02-24T06:10:13.423Z,99684.66
2023-02-24T06:12:47.626Z,99673.66
2023-02-24T06:15:16.905Z,99684.50
2023-02-24T06:17:46.849Z,99683.69
2023-02-24T06:20:16.052Z,99692.09
2023-02-24T06:22:45.313Z,99684.25
2023-02-24T06:25:15.464Z,99693.38
2023-02-24T06:27:43.722Z,99690.97
2023-02-24T06:30:15.359Z,99689.78
2023-02-24T06:32:49.837Z,99686.38
2023-02-24T06:35:32.951Z,99687.00
2023-02-24T06:38:01.927Z,99687.47
2023-02-24T06:40:37.739Z,99690.72
2023-02-24T06:43:05.830Z,99688.66
2023-02-24T06:45:36.868Z,99688.41
2023-02-24T06:48:08.484Z,99684.47
2023-02-24T06:50:42.219Z,99683.38
2023-02-24T06:53:17.510Z,99692.53
2023-02-24T06:55:49.841Z,99682.66
2023-02-24T06:58:22.458Z,99687.72
2023-02-24T07:00:57.687Z,99682.88
2023-02-24T07:03:39.412Z,99684.47
2023-02-24T07:06:22.861Z,99685.31
2023-02-24T07:08:53.448Z,99677.56
2023-02-24T07:11:31.426Z,99679.00
2023-02-24T07:14:00.942Z,99672.31
2023-02-24T07:16:31.795Z,99688.72
2023-02-24T07:19:04.064Z,99664.66
2023-02-24T07:21:39.641Z,99688.50
2023-02-24T07:24:14.494Z,99679.31
2023-02-24T07:26:51.506Z,99677.41
2023-02-24T07:29:19.493Z,99675.31
2023-02-24T07:31:54.961Z,99670.88
2023-02-24T07:34:27.839Z,99669.97
2023-02-24T07:36:58.448Z,99671.34
2023-02-24T07:39:29.898Z,99667.34
2023-02-24T07:42:01.988Z,99660.50
2023-02-24T07:44:31.303Z,99651.03
2023-02-24T07:47:00.181Z,99644.09
2023-02-24T07:49:30.949Z,99643.66
2023-02-24T07:52:00.622Z,99640.50
2023-02-24T07:54:30.269Z,99639.53
2023-02-24T07:57:01.750Z,99640.53
2023-02-24T07:59:33.649Z,99640.03
2023-02-24T08:02:05.079Z,99637.63
2023-02-24T08:04:43.851Z,99633.06
2023-02-24T08:07:18.311Z,99620.44
2023-02-24T08:10:03.932Z,99626.09
2023-02-24T08:12:37.627Z,99627.00
2023-02-24T08:15:17.649Z,99628.22
2023-02-24T08:17:55.029Z,99626.81
2023-02-24T08:20:27.210Z,99613.88
2023-02-24T08:23:05.462Z,99591.31
2023-02-24T08:25:39.118Z,99611.75
2023-02-24T08:28:11.551Z,99607.50
2023-02-24T08:30:45.050Z,99606.31
2023-02-24T08:33:19.364Z,99607.50
2023-02-24T08:36:03.028Z,99592.06
2023-02-24T08:38:44.837Z,99593.13
2023-02-24T08:41:17.981Z,99592.88
2023-02-24T08:43:52.679Z,99577.44
2023-02-24T08:46:27.653Z,99577.81
2023-02-24T08:49:02.921Z,99575.97
2023-02-24T08:51:37.617Z,99564.44
2023-02-24T08:54:11.536Z,99565.75
2023-02-24T08:56:49.930Z,99565.47
2023-02-24T08:59:37.891Z,99548.94
2023-02-24T09:02:18.592Z,99562.66
2023-02-24T09:04:51.429Z,99560.09
2023-02-24T09:07:24.275Z,99560.28
2023-02-24T09:09:58.927Z,99562.66
2023-02-24T09:12:34.715Z,99560.09
2023-02-24T09:15:05.903Z,99550.53
2023-02-24T09:17:50.972Z,99552.31
2023-02-24T09:20:56.260Z,99552.72
2023-02-24T09:23:32.383Z,99558.63
2023-02-24T09:26:11.322Z,99549.94
2023-02-24T09:28:49.018Z,99538.25
2023-02-24T09:31:38.060Z,99540.16
2023-02-24T09:34:07.451Z,99534.47
2023-02-24T09:36:44.893Z,99528.63
2023-02-24T09:39:15.079Z,99521.06
2023-02-24T09:41:59.363Z,99530.69
2023-02-24T09:44:36.239Z,99514.50
2023-02-24T09:47:18.949Z,99499.56
2023-02-24T09:49:57.197Z,99512.84
2023-02-24T09:52:40.656Z,99505.97
2023-02-24T09:55:26.087Z,99499.88
2023-02-24T09:58:19.856Z,99495.75
2023-02-24T10:00:59.528Z,99504.41
2023-02-24T10:03:42.779Z,99499.06
2023-02-24T10:06:23.136Z,99487.00
2023-02-24T10:08:56.532Z,99470.47
2023-02-24T10:11:33.958Z,99464.97
2023-02-24T10:14:07.406Z,99480.88
2023-02-24T10:16:44.964Z,99472.47
2023-02-24T10:19:24.299Z,99463.28
2023-02-24T10:22:10.017Z,99457.72
2023-02-24T10:24:47.708Z,99452.63
2023-02-24T10:27:23.735Z,99446.72
2023-02-24T10:30:06.281Z,99431.88
2023-02-24T10:32:41.940Z,99447.41
2023-02-24T10:35:17.535Z,99435.88
2023-02-24T10:37:46.630Z,99437.22
2023-02-24T10:40:26.646Z,99433.16
2023-02-24T10:43:10.614Z,99429.34
2023-02-24T10:45:45.160Z,99424.50
2023-02-24T10:48:40.772Z,99426.56
2023-02-24T10:51:26.517Z,99422.84
2023-02-24T10:54:22.342Z,99414.44
2023-02-24T10:57:08.290Z,99409.81
2023-02-24T11:00:19.979Z,99406.03
2023-02-24T11:03:08.057Z,99393.03
2023-02-24T11:06:07.050Z,99389.16
2023-02-24T11:08:40.019Z,99378.44
2023-02-24T11:11:25.395Z,99383.53
2023-02-24T11:14:12.451Z,99363.34
2023-02-24T11:17:04.075Z,99347.94
2023-02-24T11:19:36.319Z,99354.56
2023-02-24T11:22:09.015Z,99350.50
2023-02-24T11:24:41.782Z,99351.19
2023-02-24T11:27:12.348Z,99341.91
2023-02-24T11:29:53.551Z,99344.34
2023-02-24T11:32:40.003Z,99336.06
2023-02-24T11:35:22.797Z,99322.78
2023-02-24T11:38:05.299Z,99338.16
2023-02-24T11:40:42.722Z,99321.91
2023-02-24T11:43:18.678Z,99307.84
2023-02-24T11:45:49.999Z,99286.69
2023-02-24T11:48:32.933Z,99322.28
2023-02-24T11:51:07.381Z,99312.34
2023-02-24T11:53:38.497Z,99309.97
2023-02-24T11:56:13.762Z,99298.28
2023-02-24T11:58:47.490Z,99288.63
2023-02-24T12:01:24.531Z,99293.13
2023-02-24T12:04:02.934Z,99290.63
2023-02-24T12:06:37.012Z,99291.25
2023-02-24T12:09:14.160Z,99274.53
2023-02-24T12:11:56.320Z,99266.25
2023-02-24T12:14:34.950Z,99267.88
2023-02-24T12:17:14.321Z,99261.06
2023-02-24T12:19:53.720Z,99260.91
2023-02-24T12:22:26.747Z,99263.50
2023-02-24T12:24:55.760Z,99261.97
2023-02-24T12:27:39.576Z,99264.88
2023-02-24T12:30:48.878Z,99252.84
2023-02-24T12:33:31.457Z,99234.78
2023-02-24T12:36:06.348Z,99226.06
2023-02-24T12:38:54.148Z,99229.09
2023-02-24T12:42:02.722Z,99236.13
2023-02-24T12:44:49.981Z,99236.78
2023-02-24T12:47:27.593Z,99221.09
2023-02-24T12:50:17.949Z,99230.03
2023-02-24T12:53:03.240Z,99217.31
2023-02-24T12:55:42.446Z,99217.91
2023-02-24T12:58:26.498Z,99211.72
2023-02-24T13:01:21.663Z,99218.03
2023-02-24T13:04:17.509Z,99212.44
2023-02-24T13:06:58.149Z,99198.56
2023-02-24T13:09:35.914Z,99202.78
2023-02-24T13:12:12.505Z,99173.00
2023-02-24T13:14:45.739Z,99194.31
2023-02-24T13:17:21.519Z,99189.97
2023-02-24T13:19:52.271Z,99185.53
2023-02-24T13:22:33.442Z,99174.53
2023-02-24T13:25:13.935Z,99177.41
2023-02-24T13:27:47.901Z,99167.94
2023-02-24T13:30:33.597Z,99171.69
2023-02-24T13:33:06.502Z,99165.75
2023-02-24T13:35:37.581Z,99157.00
2023-02-24T13:38:27.166Z,99149.97
2023-02-24T13:41:08.449Z,99150.84
2023-02-24T13:43:37.244Z,99147.91
2023-02-24T13:46:19.787Z,99144.97
2023-02-24T13:49:05.819Z,99141.97
2023-02-24T13:51:54.647Z,99145.81
2023-02-24T13:54:56.795Z,99140.38
2023-02-24T13:57:46.044Z,99138.97
2023-02-24T14:00:25.121Z,99135.44
2023-02-24T14:02:53.764Z,99124.09
2023-02-24T14:05:31.093Z,99121.69
2023-02-24T14:08:05.832Z,99128.16
2023-02-24T14:10:39.127Z,99116.75
2023-02-24T14:13:18.955Z,99131.78
2023-02-24T14:15:49.405Z,99121.84
2023-02-24T14:18:22.007Z,99121.78
2023-02-24T14:20:54.536Z,99119.00
2023-02-24T14:23:26.892Z,99115.47
2023-02-24T14:25:57.564Z,99099.09
2023-02-24T14:28:31.336Z,99096.97
2023-02-24T14:31:01.975Z,99096.97
2023-02-24T14:33:40.097Z,99100.69
2023-02-24T14:36:19.512Z,99091.56
2023-02-24T14:38:48.585Z,99096.00
2023-02-24T14:41:23.845Z,99095.50
2023-02-24T14:43:53.151Z,99100.53
2023-02-24T14:46:24.551Z,99088.25
2023-02-24T14:49:00.434Z,99092.31
2023-02-24T14:51:35.874Z,99086.63
2023-02-24T14:54:15.452Z,99087.72
2023-02-24T14:56:52.056Z,99076.03
2023-02-24T14:59:33.448Z,99080.06
2023-02-24T15:02:03.998Z,99073.16
2023-02-24T15:04:36.718Z,99073.66
2023-02-24T15:07:10.925Z,99069.88
2023-02-24T15:09:47.373Z,99079.06
2023-02-24T15:12:27.439Z,99066.28
2023-02-24T15:15:01.973Z,99068.31
2023-02-24T15:17:34.647Z,99070.50
2023-02-24T15:20:05.837Z,99059.69
2023-02-24T15:22:41.352Z,99057.78
2023-02-24T15:25:37.238Z,99061.69
2023-02-24T15:28:27.050Z,99045.31
2023-02-24T15:31:05.634Z,99039.19
2023-02-24T15:33:42.429Z,99048.97
2023-02-24T15:36:26.432Z,99040.16
2023-02-24T15:39:07.848Z,99041.00
2023-02-24T15:41:41.439Z,99050.00
2023-02-24T15:44:30.575Z,99013.88
2023-02-24T15:47:00.239Z,99051.84
2023-02-24T15:49:32.830Z,99043.00
2023-02-24T15:52:05.550Z,99031.03
2023-02-24T15:54:55.475Z,99035.97
2023-02-24T15:57:28.122Z,99039.69
2023-02-24T15:59:56.700Z,99026.09
2023-02-24T16:02:32.086Z,99033.50
2023-02-24T16:05:06.995Z,99037.28
2023-02-24T16:07:41.912Z,99035.91
2023-02-24T16:10:23.423Z,99049.41
2023-02-24T16:13:16.393Z,99038.41
2023-02-24T16:15:50.070Z,99030.16
2023-02-24T16:18:23.095Z,99033.94
2023-02-24T16:20:59.666Z,99035.94
2023-02-24T16:23:34.056Z,99036.84
2023-02-24T16:26:09.744Z,99047.06
2023-02-24T16:28:40.566Z,99035.00
2023-02-24T16:31:14.532Z,99044.38
2023-02-24T16:33:54.506Z,99042.28
2023-02-24T16:36:35.061Z,99037.94
2023-02-24T16:39:07.981Z,99053.19
2023-02-24T16:41:37.455Z,99049.22
2023-02-24T16:44:10.967Z,99058.91
2023-02-24T16:46:42.296Z,99047.97
2023-02-24T16:49:18.067Z,99057.22
2023-02-24T16:51:47.439Z,99051.78
2023-02-24T16:54:29.650Z,99053.31
2023-02-24T16:56:59.961Z,99066.22
2023-02-24T16:59:31.960Z,99054.84
2023-02-24T17:02:02.273Z,99063.56
2023-02-24T17:04:32.344Z,99063.66
2023-02-24T17:07:01.258Z,99063.97
2023-02-24T17:09:36.454Z,99074.66
2023-02-24T17:12:08.720Z,99085.25
2023-02-24T17:14:39.401Z,99086.75
2023-02-24T17:17:10.640Z,99087.06
2023-02-24T17:19:39.475Z,99094.41
2023-02-24T17:22:10.587Z,99100.72
2023-02-24T17:24:45.474Z,99090.13
2023-02-24T17:27:14.847Z,99093.13
2023-02-24T17:29:43.080Z,99077.63
2023-02-24T17:32:19.774Z,99086.22
2023-02-24T17:34:48.218Z,99099.63
2023-02-24T17:37:17.373Z,99094.84
2023-02-24T17:39:46.199Z,99094.53
2023-02-24T17:42:16.286Z,99099.50
2023-02-24T17:44:46.359Z,99103.94
2023-02-24T17:47:14.674Z,99101.13
2023-02-24T17:49:43.802Z,99090.56
2023-02-24T17:52:14.050Z,99098.16
2023-02-24T17:54:43.290Z,99102.63
2023-02-24T17:57:14.143Z,99101.56
2023-02-24T17:59:48.914Z,99098.22
2023-02-24T18:02:18.599Z,99114.00
2023-02-24T18:04:47.670Z,99102.63
2023-02-24T18:07:18.766Z,99098.97
2023-02-24T18:09:49.525Z,99104.56
2023-02-24T18:12:19.332Z,99096.03
2023-02-24T18:14:59.027Z,99104.66
2023-02-24T18:17:30.515Z,99082.47
2023-02-24T18:19:58.650Z,99092.53
2023-02-24T18:22:27.009Z,99090.44
2023-02-24T18:24:55.543Z,99081.34
2023-02-24T18:27:23.624Z,99057.16
2023-02-24T18:29:52.998Z,99056.72
2023-02-24T18:32:21.770Z,99048.19
2023-02-24T18:34:50.479Z,99061.75
2023-02-24T18:37:24.129Z,99073.56
2023-02-24T18:39:56.989Z,99098.84
2023-02-24T18:42:31.785Z,99090.03
2023-02-24T18:45:01.246Z,99091.69
2023-02-24T18:47:32.979Z,99076.97
2023-02-24T18:50:01.124Z,99097.31
2023-02-24T18:52:29.161Z,99089.13
2023-02-24T18:54:57.656Z,99078.72
2023-02-24T18:57:28.741Z,99101.81
2023-02-24T18:59:57.895Z,99097.59
2023-02-24T19:02:31.804Z,99110.19
2023-02-24T19:05:00.245Z,99101.13
2023-02-24T19:07:36.872Z,99088.75
2023-02-24T19:10:08.456Z,99090.47
2023-02-24T19:12:40.336Z,99096.13
2023-02-24T19:15:10.611Z,99095.59
2023-02-24T19:17:41.491Z,99090.25
2023-02-24T19:20:17.513Z,99089.13
2023-02-24T19:22:46.194Z,99083.50
2023-02-24T19:25:15.270Z,99078.28
2023-02-24T19:27:55.098Z,99059.66
2023-02-24T19:30:23.195Z,99070.50
2023-02-24T19:32:52.960Z,99068.03
2023-02-24T19:35:22.218Z,99071.75
2023-02-24T19:37:52.361Z,99073.50
2023-02-24T19:40:22.132Z,99067.50
2023-02-24T19:42:51.821Z,99072.00
2023-02-24T19:45:20.365Z,99060.47
2023-02-24T19:47:49.280Z,99068.47
2023-02-24T19:50:19.431Z,99065.56
2023-02-24T19:52:47.469Z,99057.91
2023-02-24T19:55:18.472Z,99051.94
2023-02-24T19:57:47.237Z,99064.59
2023-02-24T20:00:20.918Z,99055.81
2023-02-24T20:02:49.474Z,99061.22
2023-02-24T20:05:19.304Z,99058.66
2023-02-24T20:07:49.516Z,99041.44
2023-02-24T20:10:19.012Z,99024.97
2023-02-24T20:12:48.031Z,99034.25
2023-02-24T20:15:16.727Z,99029.91
2023-02-24T20:17:45.723Z,99021.47
2023-02-24T20:20:14.041Z,99025.13
2023-02-24T20:22:45.702Z,99027.13
2023-02-24T20:25:17.577Z,99034.47
2023-02-24T20:27:46.770Z,99029.97
2023-02-24T20:30:17.542Z,99026.84
2023-02-24T20:32:46.988Z,99033.28
2023-02-24T20:35:15.954Z,99030.81
2023-02-24T20:37:45.336Z,99035.22
2023-02-24T20:40:14.000Z,99031.63
2023-02-24T20:42:42.065Z,99035.50
2023-02-24T20:45:12.306Z,99037.38
2023-02-24T20:47:40.831Z,99041.16
2023-02-24T20:50:11.411Z,99053.72
2023-02-24T20:52:40.054Z,99057.53
2023-02-24T20:55:10.608Z,99064.34
2023-02-24T20:57:39.228Z,99053.72
2023-02-24T21:00:08.227Z,99059.19
2023-02-24T21:02:36.526Z,99061.94
2023-02-24T21:05:04.769Z,99067.31
2023-02-24T21:07:40.896Z,99067.28
2023-02-24T21:10:12.811Z,99062.56
2023-02-24T21:12:42.251Z,99068.03
2023-02-24T21:15:12.569Z,99056.44
2023-02-24T21:17:41.026Z,99058.97
2023-02-24T21:20:11.993Z,99054.34
2023-02-24T21:22:40.643Z,99059.88
2023-02-24T21:25:12.523Z,99049.19
2023-02-24T21:27:43.002Z,99055.41
2023-02-24T21:30:14.026Z,99057.38
2023-02-24T21:32:47.683Z,99058.22
2023-02-24T21:35:16.130Z,99063.47
2023-02-24T21:37:46.118Z,99059.94
2023-02-24T21:40:17.971Z,99053.66
2023-02-24T21:42:47.158Z,99060.59
2023-02-24T21:45:16.583Z,99062.47
2023-02-24T21:47:46.864Z,99076.25
2023-02-24T21:50:17.104Z,99059.78
2023-02-24T21:52:46.959Z,99066.50
2023-02-24T21:55:20.031Z,99066.75
2023-02-24T21:57:48.277Z,99078.06
2023-02-24T22:00:24.742Z,99079.47
2023-02-24T22:02:56.254Z,99083.88
2023-02-24T22:05:26.091Z,99089.66
2023-02-24T22:07:57.020Z,99088.47
2023-02-24T22:10:28.619Z,99088.03
2023-02-24T22:12:57.807Z,99089.69
2023-02-24T22:15:26.847Z,99098.06
2023-02-24T22:17:55.253Z,99076.88
2023-02-24T22:20:28.996Z,99096.84
2023-02-24T22:22:57.388Z,99090.09
2023-02-24T22:25:28.120Z,99111.34
2023-02-24T22:28:01.600Z,99086.16
2023-02-24T22:30:34.830Z,99105.53
2023-02-24T22:33:04.298Z,99096.44
2023-02-24T22:35:34.794Z,99092.00
2023-02-24T22:38:05.423Z,99100.91
2023-02-24T22:40:34.991Z,99093.53
2023-02-24T22:43:08.891Z,99102.97
2023-02-24T22:45:37.148Z,99088.91
2023-02-24T22:48:05.785Z,99108.44
2023-02-24T22:50:33.758Z,99094.78
2023-02-24T22:53:03.657Z,99111.06
2023-02-24T22:55:34.052Z,99083.44
2023-02-24T22:58:03.936Z,99117.22
2023-02-24T23:00:32.074Z,99110.56
2023-02-24T23:02:59.932Z,99117.50
2023-02-24T23:05:29.975Z,99104.25
2023-02-24T23:07:57.997Z,99108.47
2023-02-24T23:10:31.139Z,99082.28
2023-02-24T23:13:01.274Z,99127.28
2023-02-24T23:15:29.485Z,99130.03
2023-02-24T23:18:04.796Z,99140.59
2023-02-24T23:20:32.717Z,99138.97
2023-02-24T23:23:02.313Z,99141.28
2023-02-24T23:25:31.041Z,99146.25
2023-02-24T23:27:59.391Z,99152.22
2023-02-24T23:30:30.921Z,99146.59
2023-02-24T23:32:58.923Z,99154.66
2023-02-24T23:35:28.293Z,99151.81
2023-02-24T23:37:56.133Z,99157.22
2023-02-24T23:40:26.231Z,99163.84
2023-02-24T23:42:57.546Z,99156.91
2023-02-24T23:45:28.636Z,99148.72
2023-02-24T23:47:59.120Z,99161.53
2023-02-24T23:50:28.902Z,99164.41
2023-02-24T23:52:57.929Z,99167.75
2023-02-24T23:55:31.740Z,99177.50
2023-02-24T23:57:59.525Z,99175.16
